createdAt,value
2023-01-13T00:00:50.006Z,21.88
2023-01-13T00:03:16.649Z,18.95
2023-01-13T00:05:43.197Z,21.13
2023-01-13T00:08:09.714Z,21.20
2023-01-13T00:10:36.612Z,20.05
2023-01-13T00:13:04.707Z,19.23
2023-01-13T00:15:31.854Z,20.10
2023-01-13T00:17:58.405Z,21.65
2023-01-13T00:20:24.997Z,20.77
2023-01-13T00:22:51.592Z,23.35
2023-01-13T00:25:18.153Z,21.95
2023-01-13T00:27:44.745Z,17.85
2023-01-13T00:30:11.897Z,22.92
2023-01-13T00:32:38.609Z,24.85
2023-01-13T00:35:05.679Z,25.05
2023-01-13T00:37:32.278Z,24.17
2023-01-13T00:39:58.871Z,23.42
2023-01-13T00:42:44.013Z,23.05
2023-01-13T00:45:10.917Z,23.33
2023-01-13T00:47:37.495Z,24.08
2023-01-13T00:50:04.373Z,26.63
2023-01-13T00:52:32.464Z,24.15
2023-01-13T00:54:59.055Z,23.80
2023-01-13T00:57:25.713Z,25.25
2023-01-13T00:59:52.356Z,23.05
2023-01-13T01:02:18.979Z,23.15
2023-01-13T01:04:45.642Z,22.20
2023-01-13T01:07:12.177Z,24.48
2023-01-13T01:09:39.441Z,25.23
2023-01-13T01:12:06.124Z,25.98
2023-01-13T01:14:32.724Z,22.35
2023-01-13T01:16:59.347Z,23.50
2023-01-13T01:19:25.986Z,25.25
2023-01-13T01:21:52.593Z,28.70
2023-01-13T01:24:19.225Z,23.77
2023-01-13T01:26:45.807Z,25.42
2023-01-13T01:29:15.215Z,27.92
2023-01-13T01:31:42.108Z,26.63
2023-01-13T01:34:08.824Z,24.23
2023-01-13T01:36:36.617Z,25.45
2023-01-13T01:39:04.296Z,25.42
2023-01-13T01:41:33.803Z,24.05
2023-01-13T01:44:07.371Z,23.88
2023-01-13T01:46:41.832Z,29.27
2023-01-13T01:49:18.141Z,24.65
2023-01-13T01:51:56.814Z,24.77
2023-01-13T01:54:35.441Z,25.98
2023-01-13T01:57:02.210Z,25.20
2023-01-13T01:59:32.061Z,25.15
2023-01-13T02:01:58.967Z,26.23
2023-01-13T02:04:33.801Z,25.27
2023-01-13T02:07:02.300Z,25.05
2023-01-13T02:09:30.074Z,26.73
2023-01-13T02:12:15.341Z,25.48
2023-01-13T02:14:42.397Z,24.33
2023-01-13T02:17:17.807Z,24.70
2023-01-13T02:20:22.567Z,23.25
2023-01-13T02:23:45.506Z,25.30
2023-01-13T02:26:21.576Z,22.40
2023-01-13T02:29:08.400Z,24.40
2023-01-13T02:31:43.175Z,24.35
2023-01-13T02:34:17.535Z,25.88
2023-01-13T02:36:52.697Z,23.08
2023-01-13T02:39:27.393Z,24.83
2023-01-13T02:42:18.827Z,25.35
2023-01-13T02:44:52.274Z,22.67
2023-01-13T02:47:28.622Z,23.52
2023-01-13T02:50:00.402Z,23.40
2023-01-13T02:52:36.003Z,23.02
2023-01-13T02:55:12.247Z,24.13
2023-01-13T02:57:40.985Z,23.15
2023-01-13T03:00:10.661Z,21.70
2023-01-13T03:02:38.588Z,21.65
2023-01-13T03:05:06.104Z,23.85
2023-01-13T03:07:55.696Z,25.20
2023-01-13T03:10:47.935Z,24.92
2023-01-13T03:13:25.789Z,22.50
2023-01-13T03:16:01.400Z,24.45
2023-01-13T03:18:37.156Z,23.50
2023-01-13T03:21:03.656Z,23.73
2023-01-13T03:23:41.076Z,22.20
2023-01-13T03:26:17.405Z,24.23
2023-01-13T03:28:54.487Z,21.65
2023-01-13T03:31:32.184Z,23.15
2023-01-13T03:34:04.841Z,20.98
2023-01-13T03:36:33.757Z,25.25
2023-01-13T03:39:07.256Z,26.23
2023-01-13T03:41:41.609Z,24.00
2023-01-13T03:44:22.846Z,22.52
2023-01-13T03:47:07.659Z,23.90
2023-01-13T03:49:43.498Z,27.67
2023-01-13T03:52:18.441Z,25.17
2023-01-13T03:54:51.701Z,24.75
2023-01-13T03:57:23.208Z,23.00
2023-01-13T03:59:55.244Z,23.65
2023-01-13T04:02:44.677Z,27.27
2023-01-13T04:05:11.981Z,25.75
2023-01-13T04:07:44.443Z,25.25
2023-01-13T04:13:04.271Z,25.73
2023-01-13T04:15:35.912Z,24.80
2023-01-13T04:18:10.290Z,24.65
2023-01-13T04:20:37.977Z,25.70
2023-01-13T04:23:04.762Z,26.38
2023-01-13T04:25:31.649Z,26.23
2023-01-13T04:27:58.310Z,26.90
2023-01-13T04:30:25.033Z,25.63
2023-01-13T04:32:51.674Z,30.58
2023-01-13T04:35:18.470Z,25.08
2023-01-13T04:37:45.041Z,27.83
2023-01-13T04:40:11.836Z,27.75
2023-01-13T04:42:38.458Z,27.52
2023-01-13T04:45:05.595Z,29.50
2023-01-13T04:47:32.218Z,30.52
2023-01-13T04:49:58.796Z,28.98
2023-01-13T04:52:25.411Z,30.38
2023-01-13T04:54:51.951Z,30.58
2023-01-13T04:57:18.512Z,30.55
2023-01-13T04:59:45.115Z,29.63
2023-01-13T05:02:15.106Z,31.10
2023-01-13T05:04:41.880Z,31.35
2023-01-13T05:07:08.487Z,27.65
2023-01-13T05:09:36.448Z,29.60
2023-01-13T05:12:21.653Z,30.33
2023-01-13T05:15:06.900Z,27.52
2023-01-13T05:17:34.092Z,30.48
2023-01-13T05:20:00.672Z,31.52
2023-01-13T05:22:46.049Z,28.55
2023-01-13T05:25:21.581Z,28.38
2023-01-13T05:27:49.741Z,31.38
2023-01-13T05:30:17.394Z,29.55
2023-01-13T05:32:44.251Z,29.52
2023-01-13T05:35:10.954Z,30.77
2023-01-13T05:37:37.781Z,28.35
2023-01-13T05:40:23.448Z,29.48
2023-01-13T05:43:24.530Z,31.33
2023-01-13T05:45:58.250Z,28.30
2023-01-13T05:48:31.318Z,29.35
2023-01-13T05:50:58.224Z,29.15
2023-01-13T05:53:25.185Z,29.75
2023-01-13T05:55:52.377Z,31.45
2023-01-13T05:58:21.310Z,27.85
2023-01-13T06:00:48.462Z,32.15
2023-01-13T06:03:16.270Z,29.60
2023-01-13T06:05:43.633Z,30.95
2023-01-13T06:08:10.286Z,26.02
2023-01-13T06:10:37.332Z,27.75
2023-01-13T06:13:04.814Z,28.38
2023-01-13T06:15:32.355Z,27.90
2023-01-13T06:17:59.071Z,29.23
2023-01-13T06:20:25.686Z,27.23
2023-01-13T06:22:53.535Z,31.27
2023-01-13T06:25:26.312Z,32.53
2023-01-13T06:27:55.007Z,29.80
2023-01-13T06:30:21.882Z,29.88
2023-01-13T06:32:54.833Z,30.05
2023-01-13T06:35:29.228Z,26.75
2023-01-13T06:37:58.914Z,26.88
2023-01-13T06:40:25.843Z,26.20
2023-01-13T06:43:15.927Z,26.38
2023-01-13T06:45:52.448Z,24.58
2023-01-13T06:48:24.198Z,25.55
2023-01-13T06:50:50.907Z,23.00
2023-01-13T06:53:17.521Z,26.85
2023-01-13T06:55:44.148Z,25.50
2023-01-13T06:58:11.031Z,25.33
2023-01-13T07:00:37.845Z,25.40
2023-01-13T07:03:07.149Z,28.35
2023-01-13T07:05:33.833Z,26.30
2023-01-13T07:08:01.000Z,26.38
2023-01-13T07:10:27.615Z,25.42
2023-01-13T07:13:12.794Z,28.55
2023-01-13T07:15:39.454Z,24.40
2023-01-13T07:18:06.095Z,25.20
2023-01-13T07:20:33.177Z,27.08
2023-01-13T07:22:59.810Z,27.83
2023-01-13T07:25:26.386Z,26.48
2023-01-13T07:27:53.023Z,27.27
2023-01-13T07:30:19.688Z,25.88
2023-01-13T07:32:46.627Z,26.27
2023-01-13T07:35:13.256Z,27.45
2023-01-13T07:37:40.345Z,28.25
2023-01-13T07:40:07.704Z,26.77
2023-01-13T07:42:52.870Z,25.90
2023-01-13T07:45:19.488Z,26.25
2023-01-13T07:47:46.039Z,25.40
2023-01-13T07:50:12.654Z,27.48
2023-01-13T07:52:39.224Z,28.00
2023-01-13T07:55:06.204Z,25.15
2023-01-13T07:57:32.763Z,27.10
2023-01-13T07:59:59.541Z,26.75
2023-01-13T08:02:26.312Z,28.42
2023-01-13T08:04:52.954Z,29.67
2023-01-13T08:07:19.835Z,29.08
2023-01-13T08:09:46.446Z,41.03
2023-01-13T08:12:31.304Z,37.20
2023-01-13T08:14:57.907Z,29.05
2023-01-13T08:17:24.850Z,27.00
2023-01-13T08:19:51.480Z,24.33
2023-01-13T08:22:18.123Z,30.05
2023-01-13T08:24:44.695Z,27.77
2023-01-13T08:27:11.282Z,25.85
2023-01-13T08:29:37.832Z,25.13
2023-01-13T08:32:04.542Z,27.25
2023-01-13T08:34:31.244Z,23.52
2023-01-13T08:36:57.840Z,25.40
2023-01-13T08:39:25.539Z,26.15
2023-01-13T08:41:58.671Z,22.65
2023-01-13T08:44:30.619Z,23.67
2023-01-13T08:46:57.485Z,24.60
2023-01-13T08:49:25.342Z,24.88
2023-01-13T08:51:53.129Z,23.02
2023-01-13T08:54:19.980Z,23.65
2023-01-13T08:56:47.190Z,22.17
2023-01-13T08:59:19.680Z,21.98
2023-01-13T09:01:46.505Z,22.27
2023-01-13T09:04:24.123Z,23.50
2023-01-13T09:06:51.716Z,22.45
2023-01-13T09:09:18.524Z,22.27
2023-01-13T09:12:06.897Z,21.33
2023-01-13T09:14:36.136Z,23.95
2023-01-13T09:17:03.154Z,21.02
2023-01-13T09:19:30.518Z,22.83
2023-01-13T09:21:57.895Z,23.27
2023-01-13T09:24:25.472Z,22.67
2023-01-13T09:26:52.674Z,32.97
2023-01-13T09:29:19.333Z,28.67
2023-01-13T09:31:46.005Z,22.73
2023-01-13T09:34:36.830Z,22.38
2023-01-13T09:37:04.932Z,21.75
2023-01-13T09:39:32.881Z,20.67
2023-01-13T09:42:34.088Z,24.10
2023-01-13T09:45:16.788Z,22.70
2023-01-13T09:50:42.828Z,22.75
2023-01-13T09:53:19.400Z,21.65
2023-01-13T09:55:46.222Z,21.15
2023-01-13T09:58:16.883Z,19.25
2023-01-13T10:01:00.499Z,22.42
2023-01-13T10:03:29.438Z,21.40
2023-01-13T10:06:19.251Z,20.25
2023-01-13T10:08:47.528Z,20.00
2023-01-13T10:11:42.856Z,19.85
2023-01-13T10:14:18.544Z,22.25
2023-01-13T10:17:05.040Z,20.92
2023-01-13T10:19:38.824Z,22.38
2023-01-13T10:22:36.032Z,23.92
2023-01-13T10:25:20.285Z,22.33
2023-01-13T10:27:50.205Z,24.23
2023-01-13T10:30:22.393Z,24.63
2023-01-13T10:33:09.936Z,22.80
2023-01-13T10:36:01.102Z,23.90
2023-01-13T10:38:27.661Z,22.60
2023-01-13T10:40:55.546Z,22.00
2023-01-13T10:43:23.773Z,23.38
2023-01-13T10:45:59.602Z,22.85
2023-01-13T10:48:39.807Z,21.27
2023-01-13T10:51:39.810Z,20.55
2023-01-13T10:54:13.001Z,20.20
2023-01-13T10:56:45.007Z,22.13
2023-01-13T10:59:22.406Z,19.27
2023-01-13T11:02:03.831Z,19.92
2023-01-13T11:04:36.687Z,21.77
2023-01-13T11:07:05.710Z,19.73
2023-01-13T11:09:32.964Z,19.98
2023-01-13T11:12:00.218Z,21.15
2023-01-13T11:14:44.031Z,20.08
2023-01-13T11:17:36.019Z,18.17
2023-01-13T11:20:19.169Z,19.65
2023-01-13T11:22:49.031Z,17.83
2023-01-13T11:25:31.778Z,16.25
2023-01-13T11:28:14.226Z,18.75
2023-01-13T11:30:50.848Z,17.08
2023-01-13T11:33:38.607Z,19.40
2023-01-13T11:36:23.245Z,16.25
2023-01-13T11:38:56.208Z,15.82
2023-01-13T11:41:47.316Z,16.85
2023-01-13T11:44:50.466Z,16.27
2023-01-13T11:49:48.574Z,18.63
2023-01-13T11:52:28.124Z,15.48
2023-01-13T11:55:16.974Z,17.27
2023-01-13T11:58:05.427Z,17.70
2023-01-13T12:00:59.012Z,16.25
2023-01-13T12:03:52.589Z,15.90
2023-01-13T12:06:40.061Z,14.57
2023-01-13T12:09:28.072Z,17.15
2023-01-13T12:12:34.797Z,16.83
2023-01-13T12:15:19.467Z,14.02
2023-01-13T12:18:04.792Z,14.75
2023-01-13T12:21:05.424Z,15.70
2023-01-13T12:23:43.016Z,17.15
2023-01-13T12:26:12.903Z,16.75
2023-01-13T12:28:57.869Z,16.48
2023-01-13T12:31:26.663Z,17.15
2023-01-13T12:34:18.115Z,18.33
2023-01-13T12:36:54.514Z,16.65
2023-01-13T12:39:30.112Z,23.05
2023-01-13T12:42:33.535Z,18.13
2023-01-13T12:45:12.315Z,18.75
2023-01-13T12:47:44.265Z,15.75
2023-01-13T12:50:22.832Z,16.13
2023-01-13T12:52:52.519Z,17.75
2023-01-13T12:55:22.031Z,14.25
2023-01-13T12:58:04.848Z,13.90
2023-01-13T13:00:59.178Z,14.13
2023-01-13T13:03:33.101Z,13.93
2023-01-13T13:06:06.107Z,13.40
2023-01-13T13:09:19.055Z,12.07
2023-01-13T13:12:14.331Z,14.40
2023-01-13T13:14:40.934Z,14.40
2023-01-13T13:17:19.822Z,12.68
2023-01-13T13:19:49.537Z,14.35
2023-01-13T13:22:21.497Z,13.00
2023-01-13T13:24:52.307Z,13.32
2023-01-13T13:27:28.700Z,16.00
2023-01-13T13:30:04.579Z,14.88
2023-01-13T13:32:43.172Z,15.07
2023-01-13T13:35:29.579Z,13.52
2023-01-13T13:38:53.429Z,13.13
2023-01-13T13:41:41.971Z,13.82
2023-01-13T13:44:39.508Z,11.20
2023-01-13T13:47:07.545Z,13.35
2023-01-13T13:49:40.747Z,14.70
2023-01-13T13:52:16.300Z,14.52
2023-01-13T13:54:49.133Z,13.57
2023-01-13T13:57:40.084Z,13.35
2023-01-13T14:00:39.408Z,14.88
2023-01-13T14:03:20.885Z,14.73
2023-01-13T14:06:04.873Z,16.50
2023-01-13T14:08:35.247Z,13.23
2023-01-13T14:11:01.965Z,14.82
2023-01-13T14:13:31.197Z,13.93
2023-01-13T14:16:00.612Z,14.82
2023-01-13T14:18:29.917Z,13.00
2023-01-13T14:21:27.084Z,13.90
2023-01-13T14:23:57.899Z,14.75
2023-01-13T14:26:27.709Z,11.70
2023-01-13T14:28:56.381Z,15.48
2023-01-13T14:31:23.426Z,14.93
2023-01-13T14:33:54.069Z,15.05
2023-01-13T14:36:32.686Z,14.32
2023-01-13T14:39:05.467Z,12.40
2023-01-13T14:41:36.967Z,15.00
2023-01-13T14:44:12.682Z,15.47
2023-01-13T14:46:43.711Z,13.18
2023-01-13T14:49:42.509Z,15.10
2023-01-13T14:52:19.884Z,14.15
2023-01-13T14:54:53.568Z,13.82
2023-01-13T14:57:31.986Z,14.57
2023-01-13T15:00:14.125Z,12.68
2023-01-13T15:03:00.038Z,14.18
2023-01-13T15:05:26.819Z,15.13
2023-01-13T15:08:02.693Z,12.88
2023-01-13T15:10:32.870Z,14.63
2023-01-13T15:13:03.353Z,13.93
2023-01-13T15:15:37.471Z,14.13
2023-01-13T15:18:15.057Z,16.98
2023-01-13T15:20:42.257Z,15.75
2023-01-13T15:23:09.039Z,14.43
2023-01-13T15:25:38.428Z,16.38
2023-01-13T15:28:06.652Z,16.65
2023-01-13T15:30:34.009Z,15.90
2023-01-13T15:33:00.637Z,16.30
2023-01-13T15:35:28.871Z,14.48
2023-01-13T15:37:56.900Z,15.13
2023-01-13T15:40:31.687Z,18.08
2023-01-13T15:43:16.993Z,17.20
2023-01-13T15:46:02.555Z,12.30
2023-01-13T15:48:32.067Z,14.63
2023-01-13T15:50:59.766Z,13.77
2023-01-13T15:53:27.666Z,15.25
2023-01-13T15:55:56.681Z,14.52
2023-01-13T15:58:28.289Z,12.75
2023-01-13T16:00:55.408Z,16.08
2023-01-13T16:03:22.483Z,14.30
2023-01-13T16:05:49.241Z,13.27
2023-01-13T16:08:20.299Z,13.10
2023-01-13T16:10:47.342Z,11.98
2023-01-13T16:13:15.114Z,13.38
2023-01-13T16:15:48.870Z,14.68
2023-01-13T16:18:26.471Z,13.43
2023-01-13T16:20:55.087Z,14.57
2023-01-13T16:23:22.858Z,13.32
2023-01-13T16:25:50.282Z,12.77
2023-01-13T16:28:22.218Z,12.00
2023-01-13T16:30:48.923Z,15.50
2023-01-13T16:33:15.628Z,14.90
2023-01-13T16:35:43.983Z,14.32
2023-01-13T16:38:29.387Z,15.90
2023-01-13T16:40:57.073Z,18.20
2023-01-13T16:43:23.676Z,14.73
2023-01-13T16:45:50.293Z,16.83
2023-01-13T16:48:20.656Z,18.00
2023-01-13T16:50:47.488Z,16.70
2023-01-13T16:53:14.078Z,17.08
2023-01-13T16:55:41.796Z,15.70
2023-01-13T16:58:20.207Z,14.65
2023-01-13T17:00:47.689Z,15.45
2023-01-13T17:03:17.240Z,16.67
2023-01-13T17:05:46.914Z,17.45
2023-01-13T17:08:19.006Z,16.13
2023-01-13T17:10:46.748Z,15.40
2023-01-13T17:13:16.699Z,16.95
2023-01-13T17:15:44.552Z,13.95
2023-01-13T17:18:13.200Z,15.25
2023-01-13T17:20:39.940Z,13.15
2023-01-13T17:23:06.529Z,16.08
2023-01-13T17:25:33.059Z,14.10
2023-01-13T17:27:59.786Z,15.55
2023-01-13T17:30:26.459Z,22.88
2023-01-13T17:32:53.033Z,13.77
2023-01-13T17:35:24.629Z,15.60
2023-01-13T17:37:52.979Z,12.57
2023-01-13T17:40:20.441Z,16.42
2023-01-13T17:42:47.053Z,16.20
2023-01-13T17:45:13.622Z,18.25
2023-01-13T17:47:40.176Z,62.53
2023-01-13T17:50:07.060Z,17.38
2023-01-13T17:52:34.289Z,16.08
2023-01-13T17:55:00.907Z,15.07
2023-01-13T17:57:27.695Z,17.27
2023-01-13T17:59:54.322Z,19.00
2023-01-13T18:02:20.991Z,18.05
2023-01-13T18:04:47.703Z,13.07
2023-01-13T18:07:14.443Z,16.35
2023-01-13T18:09:41.024Z,19.00
2023-01-13T18:12:10.538Z,28.58
2023-01-13T18:14:37.260Z,20.85
2023-01-13T18:17:04.008Z,19.83
2023-01-13T18:19:49.399Z,17.63
2023-01-13T18:22:34.342Z,17.85
2023-01-13T18:25:21.322Z,21.38
2023-01-13T18:27:48.604Z,21.23
2023-01-13T18:30:16.346Z,20.38
2023-01-13T18:32:42.966Z,20.63
2023-01-13T18:35:11.146Z,15.50
2023-01-13T18:37:42.196Z,19.23
2023-01-13T18:40:11.729Z,16.35
2023-01-13T18:42:59.119Z,16.02
2023-01-13T18:45:30.977Z,17.92
2023-01-13T18:48:00.229Z,18.02
2023-01-13T18:50:28.214Z,19.92
2023-01-13T18:52:55.677Z,19.48
2023-01-13T18:55:22.787Z,21.38
2023-01-13T18:57:50.299Z,21.17
2023-01-13T19:00:19.958Z,19.73
2023-01-13T19:02:47.451Z,19.98
2023-01-13T19:05:14.624Z,27.00
2023-01-13T19:07:43.384Z,40.15
2023-01-13T19:10:12.869Z,29.00
2023-01-13T19:12:39.578Z,32.00
2023-01-13T19:15:06.807Z,37.83
2023-01-13T19:17:35.068Z,33.40
2023-01-13T19:20:02.510Z,37.63
2023-01-13T19:22:32.754Z,27.30
2023-01-13T19:25:00.866Z,26.23
2023-01-13T19:27:28.186Z,22.90
2023-01-13T19:29:58.259Z,23.02
2023-01-13T19:32:25.108Z,23.95
2023-01-13T19:34:51.975Z,25.27
2023-01-13T19:37:19.453Z,26.90
2023-01-13T19:39:46.343Z,33.42
2023-01-13T19:42:32.469Z,40.10
2023-01-13T19:45:17.837Z,39.78
2023-01-13T19:47:45.951Z,27.52
2023-01-13T19:50:13.812Z,23.63
2023-01-13T19:52:45.220Z,19.80
2023-01-13T19:55:12.467Z,20.63
2023-01-13T19:57:43.459Z,22.85
2023-01-13T20:00:12.291Z,22.63
2023-01-13T20:02:47.835Z,21.13
2023-01-13T20:05:21.052Z,19.90
2023-01-13T20:07:49.493Z,21.63
2023-01-13T20:10:17.402Z,23.83
2023-01-13T20:12:44.120Z,22.88
2023-01-13T20:15:11.072Z,23.55
2023-01-13T20:17:37.768Z,23.23
2023-01-13T20:20:04.853Z,22.80
2023-01-13T20:22:31.494Z,25.25
2023-01-13T20:24:58.128Z,23.27
2023-01-13T20:27:24.908Z,25.42
2023-01-13T20:29:51.665Z,25.80
2023-01-13T20:32:18.260Z,29.35
2023-01-13T20:34:44.944Z,32.05
2023-01-13T20:37:12.641Z,42.45
2023-01-13T20:39:41.330Z,38.28
2023-01-13T20:42:35.381Z,36.10
2023-01-13T20:45:02.034Z,29.42
2023-01-13T20:47:30.674Z,25.33
2023-01-13T20:49:59.302Z,20.95
2023-01-13T20:52:26.477Z,17.90
2023-01-13T20:54:53.169Z,19.17
2023-01-13T20:57:19.745Z,21.45
2023-01-13T20:59:46.610Z,21.73
2023-01-13T21:02:15.410Z,19.55
2023-01-13T21:04:42.461Z,88.35
2023-01-13T21:07:09.832Z,33.50
2023-01-13T21:09:36.683Z,27.08
2023-01-13T21:12:22.250Z,29.35
2023-01-13T21:15:07.563Z,23.10
2023-01-13T21:17:52.349Z,28.77
2023-01-13T21:20:19.213Z,25.48
2023-01-13T21:22:47.455Z,25.52
2023-01-13T21:25:15.124Z,25.80
2023-01-13T21:27:43.978Z,26.67
2023-01-13T21:30:15.344Z,28.80
2023-01-13T21:32:44.094Z,23.08
2023-01-13T21:35:12.585Z,22.23
2023-01-13T21:37:41.595Z,21.35
2023-01-13T21:40:10.274Z,22.33
2023-01-13T21:42:55.319Z,23.10
2023-01-13T21:45:40.688Z,23.45
2023-01-13T21:48:07.324Z,24.08
2023-01-13T21:50:34.427Z,23.05
2023-01-13T21:53:01.111Z,26.50
2023-01-13T21:55:28.777Z,28.80
2023-01-13T21:57:56.718Z,34.42
2023-01-13T22:00:25.895Z,32.40
2023-01-13T22:02:52.999Z,27.95
2023-01-13T22:05:21.546Z,28.48
2023-01-13T22:07:49.062Z,28.13
2023-01-13T22:10:18.953Z,33.08
2023-01-13T22:12:47.321Z,26.13
2023-01-13T22:15:15.910Z,30.35
2023-01-13T22:17:43.318Z,29.90
2023-01-13T22:20:11.929Z,33.42
2023-01-13T22:22:39.278Z,33.25
2023-01-13T22:25:08.787Z,29.83
2023-01-13T22:27:40.951Z,30.30
2023-01-13T22:30:15.711Z,31.65
2023-01-13T22:32:42.472Z,30.88
2023-01-13T22:35:11.131Z,26.55
2023-01-13T22:37:38.391Z,26.90
2023-01-13T22:40:07.315Z,27.30
2023-01-13T22:42:38.549Z,21.38
2023-01-13T22:45:07.329Z,17.92
2023-01-13T22:47:35.437Z,13.10
2023-01-13T22:50:02.528Z,12.02
2023-01-13T22:52:30.177Z,11.60
2023-01-13T22:54:56.821Z,10.27
2023-01-13T22:57:23.975Z,9.80
2023-01-13T22:59:51.045Z,11.70
2023-01-13T23:02:17.656Z,8.77
2023-01-13T23:04:44.368Z,7.70
2023-01-13T23:07:11.004Z,8.43
2023-01-13T23:09:37.647Z,9.70
2023-01-13T23:12:04.505Z,8.30
2023-01-13T23:14:31.104Z,9.10
2023-01-13T23:16:57.757Z,8.52
2023-01-13T23:19:24.716Z,6.95
2023-01-13T23:21:51.280Z,5.05
2023-01-13T23:24:18.050Z,5.13
2023-01-13T23:26:44.761Z,5.10
2023-01-13T23:29:13.248Z,5.25
2023-01-13T23:31:40.746Z,3.85
2023-01-13T23:34:07.723Z,3.05
2023-01-13T23:36:37.092Z,4.88
2023-01-13T23:39:04.160Z,3.88
2023-01-13T23:41:30.889Z,3.95
2023-01-13T23:44:00.171Z,3.15
2023-01-13T23:46:28.984Z,4.47
2023-01-13T23:48:55.762Z,3.17
2023-01-13T23:51:26.066Z,3.55
2023-01-13T23:53:52.736Z,2.35
2023-01-13T23:56:22.383Z,2.00
2023-01-13T23:58:50.050Z,2.20
